Time;durP1;ratioP1;P1;durP2;ratioP2;P2;SDS_P1;SDS_P2;PMS_P1;PMS_P2;Temp;Humidity;BMP_temperature;BMP_pressure;BME280_temperature;BME280_humidity;BME280_pressure;Samples;Min_cycle;Max_cycle;Signal;HPM_P1;HPM_P2
2023/05/18 00:01:47;;;;;;;4.15;1.13;;;7.80;99.90;;;;;;5034770;28;20728;-34
2023/05/18 00:04:13;;;;;;;6.82;1.00;;;7.80;99.90;;;;;;5038134;28;20136;-34
2023/05/18 00:06:38;;;;;;;5.40;1.08;;;7.70;99.90;;;;;;5033221;28;20045;-34
2023/05/18 00:09:04;;;;;;;3.03;0.80;;;7.70;99.90;;;;;;5019152;28;20045;-34
2023/05/18 00:11:30;;;;;;;2.90;0.93;;;7.70;99.90;;;;;;5035285;28;20052;-34
2023/05/18 00:13:56;;;;;;;5.20;1.05;;;7.70;99.90;;;;;;5027754;28;20115;-34
2023/05/18 00:16:21;;;;;;;3.40;1.02;;;7.60;99.90;;;;;;5036149;28;20046;-34
2023/05/18 00:18:47;;;;;;;5.13;1.27;;;7.60;99.90;;;;;;5027676;28;20065;-34
2023/05/18 00:21:15;;;;;;;4.72;1.08;;;7.60;99.90;;;;;;5028322;28;20057;-34
2023/05/18 00:23:41;;;;;;;2.95;1.35;;;7.50;99.90;;;;;;5038285;28;20053;-34
2023/05/18 00:26:07;;;;;;;6.35;0.95;;;7.40;99.90;;;;;;5018649;28;20103;-34
2023/05/18 00:28:33;;;;;;;4.20;1.00;;;7.40;99.90;;;;;;5025590;28;20053;-34
2023/05/18 00:30:59;;;;;;;5.38;1.20;;;7.40;99.90;;;;;;5029710;28;20113;-34
2023/05/18 00:33:25;;;;;;;4.63;0.90;;;7.30;99.90;;;;;;5023368;28;20054;-34
2023/05/18 00:35:50;;;;;;;10.68;2.08;;;7.30;99.90;;;;;;5033878;28;20056;-34
2023/05/18 00:38:16;;;;;;;4.93;0.98;;;7.30;99.90;;;;;;5035050;28;20483;-34
2023/05/18 00:40:42;;;;;;;5.40;0.70;;;7.30;99.90;;;;;;5033659;28;20491;-34
2023/05/18 00:43:09;;;;;;;6.15;0.80;;;7.20;99.90;;;;;;5023572;28;20511;-34
2023/05/18 00:45:35;;;;;;;5.40;1.13;;;7.20;99.90;;;;;;5010747;28;20585;-34
2023/05/18 00:48:01;;;;;;;4.90;1.10;;;7.20;99.90;;;;;;5011955;28;20416;-34
2023/05/18 00:50:27;;;;;;;6.25;1.52;;;7.20;99.90;;;;;;5010878;28;20053;-34
2023/05/18 00:52:53;;;;;;;5.28;1.20;;;7.10;99.90;;;;;;5025628;28;20059;-34
2023/05/18 00:55:19;;;;;;;8.90;1.30;;;7.10;99.90;;;;;;5011440;28;20464;-34
2023/05/18 00:57:46;;;;;;;4.53;1.17;;;7.10;99.90;;;;;;5027629;28;20085;-34
2023/05/18 01:00:14;;;;;;;8.73;2.10;;;7.20;99.90;;;;;;5022781;28;20049;-33
2023/05/18 01:02:41;;;;;;;5.93;1.20;;;7.20;99.90;;;;;;5019113;28;20044;-33
2023/05/18 01:05:11;;;;;;;3.97;1.25;;;7.10;99.90;;;;;;5023665;28;20041;-34
2023/05/18 01:07:43;;;;;;;5.60;1.20;;;7.10;99.90;;;;;;5032987;28;20084;-33
2023/05/18 01:10:14;;;;;;;5.13;1.30;;;7.10;99.90;;;;;;5027172;28;20492;-34
2023/05/18 01:13:01;;;;;;;4.30;0.90;;;7.20;99.90;;;;;;5028296;28;20069;-33
2023/05/18 01:15:36;;;;;;;5.20;1.33;;;7.20;99.90;;;;;;5030356;28;20141;-33
2023/05/18 01:18:20;;;;;;;6.28;1.23;;;7.20;99.90;;;;;;5019596;28;20060;-33
2023/05/18 01:21:18;;;;;;;7.32;1.85;;;7.10;99.90;;;;;;5023866;28;20049;-33
2023/05/18 01:24:08;;;;;;;3.42;1.08;;;7.10;99.90;;;;;;5031492;28;20111;-33
2023/05/18 01:26:38;;;;;;;4.75;1.15;;;7.10;99.90;;;;;;5030812;28;20129;-33
2023/05/18 01:29:08;;;;;;;6.95;0.93;;;7.00;99.90;;;;;;5023424;28;20491;-33
2023/05/18 01:31:34;;;;;;;3.45;1.77;;;7.00;99.90;;;;;;5027901;28;20056;-34
2023/05/18 01:34:00;;;;;;;6.50;1.20;;;7.00;99.90;;;;;;5030137;28;20054;-34
2023/05/18 01:36:25;;;;;;;4.97;1.77;;;7.00;99.90;;;;;;5028093;28;20052;-34
2023/05/18 01:38:52;;;;;;;3.75;1.50;;;6.90;99.90;;;;;;5036729;28;20136;-33
2023/05/18 01:41:26;;;;;;;4.32;1.35;;;6.90;99.90;;;;;;5027294;28;20499;-33
2023/05/18 01:44:03;;;;;;;5.03;2.08;;;6.90;99.90;;;;;;5024222;28;20106;-33
2023/05/18 01:46:34;;;;;;;2.15;0.90;;;6.90;99.90;;;;;;5030974;28;20053;-33
2023/05/18 01:49:31;;;;;;;5.15;1.30;;;6.80;99.90;;;;;;5027243;28;20054;-34
2023/05/18 01:52:02;;;;;;;5.10;1.23;;;6.80;99.90;;;;;;5002811;28;20046;-33
2023/05/18 01:54:31;;;;;;;7.28;2.03;;;6.80;99.90;;;;;;5031964;28;20053;-34
2023/05/18 01:56:58;;;;;;;6.05;1.27;;;6.80;99.90;;;;;;5018355;28;20045;-33
2023/05/18 01:59:24;;;;;;;3.65;1.35;;;6.80;99.90;;;;;;5025197;28;20513;-33
2023/05/18 02:01:50;;;;;;;5.63;1.02;;;6.80;99.90;;;;;;5029150;28;20045;-33
2023/05/18 02:04:16;;;;;;;5.85;1.58;;;6.70;99.90;;;;;;5023128;28;20060;-34
2023/05/18 02:06:42;;;;;;;4.15;1.30;;;6.70;99.90;;;;;;5025083;28;20053;-33
2023/05/18 02:09:07;;;;;;;4.43;1.35;;;6.70;99.90;;;;;;5019126;28;20161;-33
2023/05/18 02:11:33;;;;;;;5.88;1.48;;;6.60;99.90;;;;;;5023103;28;21010;-33
2023/05/18 02:13:59;;;;;;;5.03;1.30;;;6.60;99.90;;;;;;5024325;28;20060;-33
2023/05/18 02:16:25;;;;;;;3.65;1.23;;;6.60;99.90;;;;;;5031437;28;20045;-33
2023/05/18 02:18:51;;;;;;;4.18;1.88;;;6.60;99.90;;;;;;5020935;28;20062;-34
2023/05/18 02:21:17;;;;;;;7.45;1.55;;;6.60;99.90;;;;;;5025786;28;20407;-34
2023/05/18 02:23:43;;;;;;;4.60;1.30;;;6.60;99.90;;;;;;5019767;28;20124;-34
2023/05/18 02:26:09;;;;;;;7.95;1.33;;;6.50;99.90;;;;;;5024108;28;20053;-34
2023/05/18 02:28:38;;;;;;;5.95;1.42;;;6.50;99.90;;;;;;5021291;28;20091;-33
2023/05/18 02:31:09;;;;;;;8.05;1.63;;;6.50;99.90;;;;;;5023221;28;20053;-34
2023/05/18 02:33:38;;;;;;;5.20;1.02;;;6.50;99.90;;;;;;5029188;28;20052;-33
2023/05/18 02:36:13;;;;;;;6.45;1.90;;;6.40;99.90;;;;;;5016782;28;20060;-33
2023/05/18 02:38:41;;;;;;;4.40;1.00;;;6.40;99.90;;;;;;5030200;28;20103;-33
2023/05/18 02:41:07;;;;;;;4.57;2.03;;;6.40;99.90;;;;;;5028424;28;20053;-34
2023/05/18 02:43:33;;;;;;;5.57;1.55;;;6.40;99.90;;;;;;5023509;28;20123;-33
2023/05/18 02:45:59;;;;;;;5.65;1.25;;;6.40;99.90;;;;;;5026792;28;20454;-33
2023/05/18 02:48:25;;;;;;;5.43;1.13;;;6.30;99.90;;;;;;5019468;28;20048;-33
2023/05/18 02:50:51;;;;;;;6.70;1.35;;;6.30;99.90;;;;;;5023494;28;20503;-33
2023/05/18 02:53:17;;;;;;;4.32;1.58;;;6.30;99.90;;;;;;5026123;28;20048;-33
2023/05/18 02:55:42;;;;;;;4.95;1.50;;;6.30;99.90;;;;;;5025870;28;20072;-33
2023/05/18 02:58:08;;;;;;;2.95;1.02;;;6.20;99.90;;;;;;5018599;28;20193;-33
2023/05/18 03:00:34;;;;;;;4.53;1.20;;;6.30;99.90;;;;;;5020782;28;20049;-33
2023/05/18 03:03:01;;;;;;;5.40;1.58;;;6.20;99.90;;;;;;5024902;28;20057;-33
2023/05/18 03:05:27;;;;;;;6.45;1.40;;;6.20;99.90;;;;;;5020777;28;20134;-33
2023/05/18 03:07:53;;;;;;;3.63;1.50;;;6.20;99.90;;;;;;5020955;28;20077;-33
2023/05/18 03:10:20;;;;;;;6.20;1.65;;;6.20;99.90;;;;;;5028230;28;20658;-33
2023/05/18 03:12:46;;;;;;;3.47;1.40;;;6.20;99.90;;;;;;5029190;28;20414;-33
2023/05/18 03:15:14;;;;;;;8.38;1.30;;;6.20;99.90;;;;;;5026985;28;20065;-33
2023/05/18 03:17:41;;;;;;;6.43;1.90;;;6.20;99.90;;;;;;5031140;28;20045;-33
2023/05/18 03:20:10;;;;;;;3.30;1.27;;;6.20;99.90;;;;;;5018718;28;20144;-33
2023/05/18 03:22:36;;;;;;;4.97;1.42;;;6.10;99.90;;;;;;5010026;28;20053;-33
2023/05/18 03:25:03;;;;;;;5.28;1.27;;;6.10;99.90;;;;;;5021812;28;20491;-34
2023/05/18 03:27:29;;;;;;;3.75;1.60;;;6.10;99.90;;;;;;5030562;28;20469;-33
2023/05/18 03:29:58;;;;;;;5.85;2.47;;;6.00;99.90;;;;;;5023556;28;20193;-33
2023/05/18 03:32:23;;;;;;;4.28;1.30;;;6.00;99.90;;;;;;5033602;28;20080;-34
2023/05/18 03:34:50;;;;;;;4.95;1.40;;;6.10;99.90;;;;;;5019432;28;20599;-33
2023/05/18 03:37:18;;;;;;;5.05;1.50;;;6.00;99.90;;;;;;5017686;28;20053;-34
2023/05/18 03:39:44;;;;;;;7.07;1.52;;;6.00;99.90;;;;;;5023362;28;20059;-33
2023/05/18 03:42:10;;;;;;;7.20;1.80;;;6.00;99.90;;;;;;5022755;28;20053;-33
2023/05/18 03:44:35;;;;;;;3.03;1.17;;;6.00;99.90;;;;;;5016925;28;20511;-33
2023/05/18 03:47:01;;;;;;;5.57;1.38;;;6.00;99.90;;;;;;5013974;28;20077;-33
2023/05/18 03:49:28;;;;;;;4.07;1.42;;;6.00;99.90;;;;;;5021066;28;20488;-33
2023/05/18 03:51:55;;;;;;;9.90;1.58;;;6.00;99.90;;;;;;5014926;28;20046;-34
2023/05/18 03:54:21;;;;;;;4.80;1.25;;;6.00;99.90;;;;;;5020740;28;20120;-33
2023/05/18 03:56:47;;;;;;;5.60;1.98;;;6.10;99.90;;;;;;5015616;28;20080;-33
2023/05/18 03:59:13;;;;;;;6.97;1.80;;;6.10;99.90;;;;;;5026933;28;20487;-34
2023/05/18 04:01:43;;;;;;;6.40;1.95;;;6.20;99.90;;;;;;5016728;28;20049;-33
2023/05/18 04:04:16;;;;;;;7.90;1.48;;;6.20;99.90;;;;;;5018790;28;20041;-34
2023/05/18 04:06:42;;;;;;;4.72;1.33;;;6.30;99.90;;;;;;5020499;28;20041;-33
2023/05/18 04:09:08;;;;;;;2.15;1.10;;;6.30;99.90;;;;;;5017728;28;20149;-35
2023/05/18 04:11:33;;;;;;;5.35;1.55;;;6.30;99.90;;;;;;5022199;28;20140;-33
2023/05/18 04:13:59;;;;;;;5.47;1.48;;;6.40;99.90;;;;;;5019868;28;20497;-33
2023/05/18 04:16:26;;;;;;;3.22;1.50;;;6.40;99.90;;;;;;5025944;28;20052;-35
2023/05/18 04:18:52;;;;;;;5.30;1.58;;;6.50;99.90;;;;;;5019113;28;20049;-35
2023/05/18 04:21:18;;;;;;;5.80;1.92;;;6.50;99.90;;;;;;5019944;28;20066;-33
2023/05/18 04:23:44;;;;;;;5.28;1.63;;;6.60;99.90;;;;;;5026678;28;20501;-33
2023/05/18 04:26:10;;;;;;;5.13;2.10;;;6.60;99.90;;;;;;5026550;28;20056;-33
2023/05/18 04:28:38;;;;;;;4.38;1.38;;;6.60;99.90;;;;;;5024057;28;20045;-33
2023/05/18 04:31:04;;;;;;;4.55;1.52;;;6.70;99.90;;;;;;5021076;28;20046;-33
2023/05/18 04:33:31;;;;;;;3.45;1.30;;;6.80;99.90;;;;;;5032315;28;20518;-33
2023/05/18 04:35:57;;;;;;;6.55;2.03;;;6.80;99.90;;;;;;5022766;28;20052;-33
2023/05/18 04:38:24;;;;;;;7.03;2.22;;;6.90;99.90;;;;;;5023709;28;20046;-33
2023/05/18 04:40:50;;;;;;;9.90;1.50;;;6.90;99.90;;;;;;5027973;28;20048;-33
2023/05/18 04:43:17;;;;;;;8.45;1.92;;;7.00;99.90;;;;;;5031654;28;20049;-34
2023/05/18 04:45:49;;;;;;;5.80;1.98;;;7.00;99.90;;;;;;5022143;28;20068;-33
2023/05/18 04:48:16;;;;;;;5.90;1.35;;;7.10;99.90;;;;;;5030763;28;20060;-34
2023/05/18 04:50:42;;;;;;;3.92;1.48;;;7.10;99.90;;;;;;5027543;28;20164;-34
2023/05/18 04:53:08;;;;;;;7.22;1.90;;;7.10;99.90;;;;;;5034081;28;20061;-34
2023/05/18 04:55:34;;;;;;;8.38;1.85;;;7.20;99.90;;;;;;5032148;28;20060;-34
2023/05/18 04:58:00;;;;;;;5.97;1.05;;;7.20;99.90;;;;;;5033885;28;20057;-34
2023/05/18 05:00:27;;;;;;;6.13;1.40;;;7.30;99.90;;;;;;5027650;28;20048;-34
2023/05/18 05:02:55;;;;;;;4.50;1.30;;;7.30;99.90;;;;;;5030847;28;20053;-34
2023/05/18 05:05:21;;;;;;;7.90;1.50;;;7.40;99.90;;;;;;5021958;28;20061;-33
2023/05/18 05:07:49;;;;;;;5.13;1.38;;;7.40;99.90;;;;;;5027036;28;20076;-34
2023/05/18 05:10:15;;;;;;;9.60;1.30;;;7.50;99.90;;;;;;5021432;28;20046;-34
2023/05/18 05:12:41;;;;;;;5.07;1.42;;;7.60;99.90;;;;;;5020428;28;20136;-34
2023/05/18 05:15:08;;;;;;;6.65;1.33;;;7.60;99.90;;;;;;5023379;28;20569;-34
2023/05/18 05:17:33;;;;;;;8.30;1.60;;;7.70;99.90;;;;;;5035163;28;20057;-34
2023/05/18 05:19:59;;;;;;;4.88;2.05;;;7.80;99.90;;;;;;5032973;28;20072;-34
2023/05/18 05:22:25;;;;;;;6.40;1.10;;;7.80;99.90;;;;;;5027797;28;20052;-34
2023/05/18 05:24:51;;;;;;;4.22;1.13;;;7.80;99.90;;;;;;5019594;28;20524;-33
2023/05/18 05:27:17;;;;;;;4.97;1.00;;;7.90;99.90;;;;;;5030044;28;20054;-34
2023/05/18 05:29:45;;;;;;;4.22;1.30;;;7.90;99.90;;;;;;5040947;28;20107;-34
2023/05/18 05:32:11;;;;;;;4.90;1.35;;;7.90;99.90;;;;;;5023083;28;20768;-34
2023/05/18 05:34:38;;;;;;;3.83;0.82;;;8.00;99.90;;;;;;5030518;28;20064;-34
2023/05/18 05:37:04;;;;;;;4.40;1.20;;;8.00;99.90;;;;;;5022333;28;20045;-34
2023/05/18 05:39:29;;;;;;;4.32;1.05;;;8.00;99.90;;;;;;5018280;28;20045;-34
2023/05/18 05:41:55;;;;;;;7.88;1.05;;;8.10;99.90;;;;;;5019448;28;20411;-34
2023/05/18 05:44:21;;;;;;;5.35;1.05;;;8.10;99.90;;;;;;5022368;28;20057;-34
2023/05/18 05:46:47;;;;;;;3.00;1.20;;;8.10;99.90;;;;;;5018421;28;20461;-34
2023/05/18 05:49:13;;;;;;;6.70;1.25;;;8.20;99.90;;;;;;5028419;28;20045;-34
2023/05/18 05:51:38;;;;;;;4.18;1.45;;;8.20;99.90;;;;;;5022638;28;20050;-34
2023/05/18 05:54:04;;;;;;;5.88;0.98;;;8.30;99.90;;;;;;5019848;28;20459;-34
2023/05/18 05:56:29;;;;;;;4.72;1.00;;;8.40;99.90;;;;;;5020508;28;20415;-34
2023/05/18 05:58:55;;;;;;;3.88;0.80;;;8.50;99.90;;;;;;5016295;28;20419;-34
2023/05/18 06:01:21;;;;;;;5.90;1.77;;;8.60;99.90;;;;;;5021347;28;20515;-34
2023/05/18 06:03:47;;;;;;;4.15;1.30;;;8.70;99.90;;;;;;5031441;28;20049;-34
2023/05/18 06:06:13;;;;;;;3.42;0.95;;;8.90;99.90;;;;;;5017891;28;20160;-34
2023/05/18 06:08:39;;;;;;;5.75;1.27;;;9.00;99.90;;;;;;5022214;28;20053;-34
2023/05/18 06:11:05;;;;;;;3.10;1.02;;;9.20;99.90;;;;;;5028281;28;20051;-34
2023/05/18 06:13:31;;;;;;;2.38;1.05;;;9.30;99.90;;;;;;5029639;28;20486;-34
2023/05/18 06:15:57;;;;;;;3.92;0.90;;;9.30;99.90;;;;;;5032726;28;20045;-34
2023/05/18 06:18:23;;;;;;;4.05;0.80;;;9.50;99.90;;;;;;5028357;28;20108;-34
2023/05/18 06:20:49;;;;;;;2.72;1.08;;;9.60;99.90;;;;;;5023343;28;20046;-34
2023/05/18 06:23:14;;;;;;;3.30;0.85;;;9.70;99.90;;;;;;5029940;28;20120;-34
2023/05/18 06:25:40;;;;;;;4.70;1.15;;;9.80;99.90;;;;;;5022509;28;20451;-34
2023/05/18 06:28:05;;;;;;;3.15;0.75;;;9.90;99.90;;;;;;5032491;28;20080;-34
2023/05/18 06:30:31;;;;;;;6.68;1.00;;;10.00;99.90;;;;;;5036011;28;20491;-34
2023/05/18 06:32:57;;;;;;;4.80;1.00;;;10.00;99.90;;;;;;5023094;28;20073;-35
2023/05/18 06:35:23;;;;;;;2.97;1.05;;;10.00;99.90;;;;;;5026133;28;20057;-34
2023/05/18 06:37:49;;;;;;;4.03;0.70;;;10.10;99.90;;;;;;5022426;28;20082;-34
2023/05/18 06:40:15;;;;;;;6.07;0.80;;;10.20;99.90;;;;;;5017317;28;20547;-34
2023/05/18 06:42:41;;;;;;;4.32;1.00;;;10.40;99.90;;;;;;5017261;28;20045;-34
2023/05/18 06:45:07;;;;;;;3.83;0.98;;;10.40;99.90;;;;;;5014761;28;20099;-34
2023/05/18 06:47:32;;;;;;;2.67;0.68;;;10.40;99.90;;;;;;5018562;28;20053;-34
2023/05/18 06:49:58;;;;;;;3.22;0.73;;;10.50;99.90;;;;;;5021600;28;20548;-34
2023/05/18 06:52:23;;;;;;;3.80;0.70;;;10.50;99.90;;;;;;5029544;28;20060;-34
2023/05/18 06:54:49;;;;;;;3.42;0.70;;;10.60;99.90;;;;;;5030673;28;20050;-34
2023/05/18 06:57:15;;;;;;;2.60;0.68;;;10.70;99.90;;;;;;5028129;28;20045;-34
2023/05/18 06:59:40;;;;;;;6.22;0.75;;;10.70;99.90;;;;;;5022085;28;20045;-34
2023/05/18 07:02:06;;;;;;;6.78;0.88;;;10.70;99.90;;;;;;5026533;28;20045;-34
2023/05/18 07:04:31;;;;;;;5.32;1.00;;;10.80;99.90;;;;;;5030263;28;20061;-34
2023/05/18 07:06:57;;;;;;;3.22;0.60;;;10.80;99.90;;;;;;5029351;28;20454;-34
2023/05/18 07:09:24;;;;;;;5.13;0.90;;;10.90;99.90;;;;;;5025773;28;20080;-34
2023/05/18 07:11:50;;;;;;;3.80;0.73;;;10.90;99.90;;;;;;5027957;28;20053;-34
2023/05/18 07:14:15;;;;;;;2.72;1.23;;;11.00;99.90;;;;;;5015837;28;20045;-35
2023/05/18 07:16:42;;;;;;;5.40;1.10;;;11.00;99.90;;;;;;5018281;28;20064;-34
2023/05/18 07:19:08;;;;;;;3.47;0.73;;;11.00;99.90;;;;;;5035946;28;20061;-34
2023/05/18 07:21:34;;;;;;;1.85;0.68;;;11.00;99.90;;;;;;5027056;28;20065;-34
2023/05/18 07:24:00;;;;;;;6.78;0.70;;;11.00;99.90;;;;;;5012745;28;20049;-34
2023/05/18 07:26:25;;;;;;;3.17;0.73;;;11.00;99.90;;;;;;5011218;28;20057;-34
2023/05/18 07:28:51;;;;;;;6.75;1.10;;;11.10;99.90;;;;;;5028451;28;20629;-34
2023/05/18 07:31:20;;;;;;;8.27;1.50;;;11.10;99.90;;;;;;5021292;28;20281;-34
2023/05/18 07:33:46;;;;;;;4.45;0.70;;;11.00;99.90;;;;;;5025125;28;20140;-34
2023/05/18 07:36:12;;;;;;;6.15;0.93;;;11.10;99.90;;;;;;5024527;28;20056;-34
2023/05/18 07:38:38;;;;;;;5.43;0.85;;;11.10;99.90;;;;;;5027986;28;20049;-35
2023/05/18 07:41:04;;;;;;;6.30;0.80;;;11.00;99.90;;;;;;5014410;28;20500;-34
2023/05/18 07:43:29;;;;;;;3.10;0.73;;;11.00;99.90;;;;;;5029516;28;20162;-34
2023/05/18 07:45:55;;;;;;;4.57;0.90;;;11.00;99.90;;;;;;5020859;28;20515;-34
2023/05/18 07:48:20;;;;;;;4.82;0.90;;;11.10;99.90;;;;;;5017177;28;20517;-34
2023/05/18 07:50:46;;;;;;;5.95;1.13;;;11.10;99.90;;;;;;5029942;28;20118;-34
2023/05/18 07:53:12;;;;;;;4.22;0.68;;;11.20;99.90;;;;;;5007124;28;20062;-34
2023/05/18 07:55:37;;;;;;;3.67;0.65;;;11.20;99.90;;;;;;5012547;28;20069;-34
2023/05/18 07:58:03;;;;;;;2.45;0.80;;;11.20;99.90;;;;;;5019003;28;20495;-34
2023/05/18 08:00:30;;;;;;;4.45;0.57;;;11.30;99.90;;;;;;5010749;28;20381;-34
2023/05/18 08:02:55;;;;;;;2.80;0.93;;;11.30;99.90;;;;;;5026594;28;20045;-34
2023/05/18 08:05:22;;;;;;;5.20;0.52;;;11.30;99.90;;;;;;5013643;28;20099;-34
2023/05/18 08:07:48;;;;;;;5.18;0.90;;;11.30;99.90;;;;;;5015251;28;20064;-34
2023/05/18 08:10:13;;;;;;;4.93;0.73;;;11.40;99.90;;;;;;5011964;28;20141;-34
2023/05/18 08:12:39;;;;;;;3.92;1.10;;;11.50;99.90;;;;;;5013150;28;20191;-34
2023/05/18 08:15:06;;;;;;;2.72;0.63;;;11.60;99.90;;;;;;5012023;28;20764;-34
2023/05/18 08:17:32;;;;;;;4.78;0.90;;;11.60;99.90;;;;;;5020198;28;20052;-34
2023/05/18 08:19:58;;;;;;;3.10;0.80;;;11.70;99.90;;;;;;5013518;28;20056;-34
2023/05/18 08:22:24;;;;;;;4.50;1.33;;;11.80;99.90;;;;;;5025750;28;20522;-34
2023/05/18 08:24:50;;;;;;;4.00;0.65;;;12.00;99.90;;;;;;5021535;28;20045;-34
2023/05/18 08:27:15;;;;;;;2.83;0.73;;;12.00;99.90;;;;;;5022208;28;20152;-34
2023/05/18 08:29:41;;;;;;;4.90;0.85;;;12.10;99.90;;;;;;5021619;28;20119;-34
2023/05/18 08:32:07;;;;;;;4.00;0.75;;;12.20;99.90;;;;;;5023587;28;20053;-34
2023/05/18 08:34:33;;;;;;;2.72;1.00;;;12.30;99.90;;;;;;5016853;28;20104;-34
2023/05/18 08:36:59;;;;;;;4.47;0.93;;;12.30;99.90;;;;;;5018337;28;20057;-34
2023/05/18 08:39:25;;;;;;;3.55;0.70;;;12.30;99.90;;;;;;5014623;28;20462;-35
2023/05/18 08:42:11;;;;;;;4.50;0.93;;;12.30;99.90;;;;;;5015082;28;20136;-36
2023/05/18 08:44:57;;;;;;;4.95;0.80;;;12.40;99.90;;;;;;5011739;28;20049;-36
2023/05/18 08:47:25;;;;;;;2.13;0.80;;;12.50;99.90;;;;;;5016583;28;20162;-36
2023/05/18 08:49:51;;;;;;;5.32;0.80;;;12.50;99.90;;;;;;5017276;28;20057;-36
2023/05/18 08:52:21;;;;;;;3.90;0.90;;;12.60;99.90;;;;;;5019962;28;20119;-36
2023/05/18 08:54:50;;;;;;;3.38;0.63;;;12.70;99.90;;;;;;5017911;28;20067;-36
2023/05/18 08:57:19;;;;;;;7.07;0.82;;;12.70;99.90;;;;;;5015291;28;20447;-36
2023/05/18 08:59:45;;;;;;;5.28;0.95;;;12.80;99.90;;;;;;5011597;28;20077;-36
2023/05/18 09:02:12;;;;;;;4.40;0.85;;;12.90;99.90;;;;;;5021293;28;20045;-36
2023/05/18 09:04:39;;;;;;;5.68;0.90;;;12.90;99.90;;;;;;5015461;28;20050;-36
2023/05/18 09:07:07;;;;;;;11.30;0.77;;;13.00;99.90;;;;;;5017190;28;20460;-35
2023/05/18 09:09:34;;;;;;;2.40;0.80;;;13.10;99.90;;;;;;5027635;28;20053;-35
2023/05/18 09:12:00;;;;;;;6.03;1.33;;;13.30;99.90;;;;;;5020694;28;20050;-36
2023/05/18 09:14:25;;;;;;;3.25;0.80;;;13.40;99.90;;;;;;5023958;28;20049;-36
2023/05/18 09:16:52;;;;;;;3.20;0.90;;;13.40;99.90;;;;;;5018667;28;20057;-36
2023/05/18 09:19:18;;;;;;;4.55;0.95;;;13.50;99.90;;;;;;5021412;28;20173;-37
2023/05/18 09:21:43;;;;;;;3.45;0.95;;;13.60;99.90;;;;;;5018129;28;20137;-36
2023/05/18 09:24:10;;;;;;;4.03;0.88;;;13.60;99.90;;;;;;5028696;28;20472;-36
2023/05/18 09:26:37;;;;;;;4.68;0.93;;;13.60;99.90;;;;;;5016086;28;20092;-36
2023/05/18 09:29:15;;;;;;;4.78;0.80;;;13.70;99.90;;;;;;5020992;28;20050;-36
2023/05/18 09:31:40;;;;;;;5.32;1.15;;;13.80;99.90;;;;;;5018267;28;21334;-36
2023/05/18 09:34:06;;;;;;;4.32;1.00;;;13.80;99.90;;;;;;5014605;28;20064;-36
2023/05/18 09:36:33;;;;;;;5.10;1.83;;;13.80;99.90;;;;;;5020177;28;20045;-35
2023/05/18 09:38:59;;;;;;;7.63;1.52;;;13.70;99.90;;;;;;5013729;28;20061;-36
2023/05/18 09:41:26;;;;;;;4.07;0.80;;;13.90;99.90;;;;;;5031249;28;20070;-36
2023/05/18 09:43:53;;;;;;;4.43;0.75;;;14.00;99.90;;;;;;5018314;28;20103;-36
2023/05/18 09:46:19;;;;;;;5.25;1.10;;;14.20;99.90;;;;;;5027278;28;20053;-36
2023/05/18 09:48:50;;;;;;;2.83;0.60;;;14.30;99.90;;;;;;5023690;28;20061;-36
2023/05/18 09:51:16;;;;;;;5.40;1.23;;;14.30;99.90;;;;;;5019276;28;20069;-36
2023/05/18 09:53:53;;;;;;;3.33;1.00;;;14.40;99.90;;;;;;5023729;28;20051;-36
2023/05/18 09:56:20;;;;;;;3.22;0.88;;;14.60;99.90;;;;;;5017707;28;20495;-36
2023/05/18 09:58:46;;;;;;;7.10;1.10;;;14.90;99.90;;;;;;5017445;28;20073;-36
2023/05/18 10:01:12;;;;;;;4.47;0.90;;;15.10;99.90;;;;;;5031102;28;20499;-36
2023/05/18 10:03:38;;;;;;;4.88;0.82;;;15.30;99.90;;;;;;5020606;28;20063;-36
2023/05/18 10:06:09;;;;;;;3.90;0.88;;;15.40;99.90;;;;;;5021935;28;20054;-36
2023/05/18 10:08:36;;;;;;;4.82;0.90;;;15.60;99.90;;;;;;5019517;28;20061;-36
2023/05/18 10:11:02;;;;;;;4.82;0.70;;;15.80;99.90;;;;;;5024163;28;20076;-36
2023/05/18 10:13:30;;;;;;;2.22;0.70;;;15.90;99.90;;;;;;5015435;28;20124;-36
2023/05/18 10:15:58;;;;;;;4.50;0.70;;;16.00;99.90;;;;;;5023525;28;20046;-36
2023/05/18 10:18:35;;;;;;;3.58;0.80;;;16.20;99.90;;;;;;5030748;28;20049;-35
2023/05/18 10:21:02;;;;;;;4.65;0.85;;;16.20;99.90;;;;;;5021111;28;20388;-36
2023/05/18 10:23:32;;;;;;;4.13;0.98;;;16.10;99.90;;;;;;5010567;28;20241;-36
2023/05/18 10:25:58;;;;;;;6.25;1.60;;;15.90;99.90;;;;;;5029385;28;20095;-36
2023/05/18 10:28:31;;;;;;;3.55;0.93;;;15.80;99.90;;;;;;5017235;28;20057;-36
2023/05/18 10:30:59;;;;;;;4.90;1.00;;;15.90;99.90;;;;;;5018283;28;20045;-36
2023/05/18 10:33:29;;;;;;;3.78;0.80;;;15.90;99.90;;;;;;5020195;28;20080;-36
2023/05/18 10:35:55;;;;;;;4.35;1.10;;;15.90;99.90;;;;;;5019957;28;20475;-36
2023/05/18 10:38:26;;;;;;;3.13;0.85;;;16.00;99.90;;;;;;5026610;28;20064;-37
2023/05/18 10:40:55;;;;;;;3.67;0.80;;;16.20;99.90;;;;;;5012879;28;20202;-37
2023/05/18 10:43:26;;;;;;;2.85;0.60;;;16.30;99.90;;;;;;5023029;28;20079;-36
2023/05/18 10:45:57;;;;;;;5.82;1.52;;;16.40;99.90;;;;;;5015501;28;20052;-36
2023/05/18 10:48:28;;;;;;;4.95;1.33;;;16.40;99.90;;;;;;5010557;28;20058;-36
2023/05/18 10:50:56;;;;;;;5.60;0.90;;;16.60;99.90;;;;;;5008866;28;20543;-36
2023/05/18 10:53:28;;;;;;;3.22;0.93;;;16.60;99.90;;;;;;5018088;28;20061;-36
2023/05/18 10:55:55;;;;;;;5.15;0.90;;;16.70;99.90;;;;;;5015610;28;20072;-36
2023/05/18 10:58:25;;;;;;;9.70;0.90;;;16.70;99.90;;;;;;5020358;28;20092;-36
2023/05/18 11:00:56;;;;;;;5.78;1.00;;;16.80;99.90;;;;;;5012811;28;20049;-36
2023/05/18 11:03:24;;;;;;;2.75;0.80;;;16.90;99.90;;;;;;5010017;28;20072;-36
2023/05/18 11:06:01;;;;;;;4.72;0.73;;;17.00;99.90;;;;;;5007205;28;20523;-35
2023/05/18 11:08:27;;;;;;;6.10;1.00;;;17.10;99.90;;;;;;5012555;28;20058;-36
2023/05/18 11:11:00;;;;;;;6.50;0.82;;;17.20;99.90;;;;;;5023011;28;20522;-35
2023/05/18 11:13:31;;;;;;;7.25;1.15;;;17.20;99.90;;;;;;5016465;28;20058;-36
2023/05/18 11:16:00;;;;;;;3.83;1.27;;;17.20;99.90;;;;;;5012785;28;20104;-36
2023/05/18 11:18:43;;;;;;;2.97;0.93;;;17.30;99.90;;;;;;5023463;28;20058;-36
2023/05/18 11:21:24;;;;;;;6.13;1.10;;;17.30;99.90;;;;;;5016691;28;22255;-36
2023/05/18 11:24:15;;;;;;;3.83;1.33;;;17.40;99.90;;;;;;5019561;28;20052;-35
2023/05/18 11:26:41;;;;;;;4.20;1.17;;;17.50;99.90;;;;;;5020890;28;20064;-36
2023/05/18 11:29:21;;;;;;;5.65;1.05;;;17.50;99.90;;;;;;5021712;28;20378;-36
2023/05/18 11:31:49;;;;;;;7.68;1.55;;;17.60;99.90;;;;;;5013958;28;20041;-36
2023/05/18 11:34:53;;;;;;;4.68;1.00;;;17.80;99.90;;;;;;5013731;28;20081;-36
2023/05/18 11:37:45;;;;;;;3.38;0.73;;;18.00;99.90;;;;;;4961241;28;20081;-36
2023/05/18 11:40:32;;;;;;;4.07;1.13;;;18.10;99.90;;;;;;4957866;28;20051;-36
2023/05/18 11:42:58;;;;;;;4.07;1.10;;;18.10;99.90;;;;;;5002181;28;20054;-36
2023/05/18 11:45:24;;;;;;;7.43;1.40;;;18.00;99.90;;;;;;5015296;28;20050;-36
2023/05/18 11:47:55;;;;;;;5.90;1.42;;;18.10;99.90;;;;;;5023280;28;20057;-36
2023/05/18 11:50:21;;;;;;;2.70;1.08;;;18.20;99.90;;;;;;5019499;28;20056;-36
2023/05/18 11:52:50;;;;;;;4.45;0.77;;;18.20;99.90;;;;;;5032520;28;20049;-36
2023/05/18 11:55:19;;;;;;;5.32;1.15;;;18.20;99.90;;;;;;5018167;28;20081;-36
2023/05/18 11:57:48;;;;;;;5.10;1.08;;;18.20;99.90;;;;;;5017614;28;20435;-36
2023/05/18 12:00:15;;;;;;;5.80;1.08;;;18.20;99.90;;;;;;5021811;28;20050;-36
2023/05/18 12:02:43;;;;;;;4.80;1.30;;;18.20;99.90;;;;;;5019240;28;20515;-36
2023/05/18 12:05:09;;;;;;;6.18;1.27;;;18.20;99.90;;;;;;5021010;28;20050;-36
2023/05/18 12:07:36;;;;;;;3.55;1.20;;;18.30;99.90;;;;;;5022947;28;20154;-36
2023/05/18 12:10:10;;;;;;;3.35;0.93;;;18.30;99.90;;;;;;5016917;28;20065;-36
2023/05/18 12:12:37;;;;;;;4.70;0.93;;;18.40;99.90;;;;;;5027554;28;20044;-36
2023/05/18 12:15:07;;;;;;;4.00;1.00;;;18.50;99.90;;;;;;5026763;28;20061;-36
2023/05/18 12:17:48;;;;;;;6.13;1.20;;;18.70;99.90;;;;;;5024427;28;20053;-36
2023/05/18 12:20:18;;;;;;;2.15;0.90;;;19.00;99.90;;;;;;5023419;28;20060;-36
2023/05/18 12:22:52;;;;;;;7.00;1.23;;;19.20;99.90;;;;;;5016936;28;20437;-36
2023/05/18 12:25:22;;;;;;;4.82;1.00;;;19.30;99.90;;;;;;5020162;28;20403;-36
2023/05/18 12:27:48;;;;;;;3.60;1.05;;;19.30;99.90;;;;;;5019422;28;20136;-36
2023/05/18 12:30:14;;;;;;;4.53;1.02;;;19.20;99.90;;;;;;5021315;28;20073;-36
2023/05/18 12:32:53;;;;;;;4.68;1.20;;;19.20;99.90;;;;;;5021413;28;20141;-36
2023/05/18 12:35:23;;;;;;;2.30;0.73;;;19.20;99.90;;;;;;5028128;28;20082;-36
2023/05/18 12:37:49;;;;;;;5.13;1.08;;;19.40;99.90;;;;;;5024348;28;20045;-36
2023/05/18 12:40:16;;;;;;;5.22;1.77;;;19.40;99.90;;;;;;5024243;28;20072;-36
2023/05/18 12:42:51;;;;;;;4.60;1.10;;;19.50;99.90;;;;;;5019034;28;20045;-36
2023/05/18 12:45:17;;;;;;;5.05;1.30;;;19.60;99.90;;;;;;5018930;28;20123;-36
2023/05/18 12:47:43;;;;;;;3.50;1.05;;;19.80;99.90;;;;;;5017153;28;20523;-36
2023/05/18 12:50:10;;;;;;;4.47;1.02;;;;;;;;;;5011396;28;20057;-36
2023/05/18 12:52:36;;;;;;;5.85;1.20;;;20.10;99.90;;;;;;5023890;28;20061;-36
2023/05/18 12:55:03;;;;;;;5.15;1.38;;;20.30;99.90;;;;;;5019345;28;20073;-36
2023/05/18 12:57:32;;;;;;;4.95;1.15;;;20.30;99.90;;;;;;5024050;28;20061;-36